createdAt,value
2022-08-05T00:00:46.517Z,101635.41
2022-08-05T00:03:16.687Z,101631.53
2022-08-05T00:06:05.672Z,101635.78
2022-08-05T00:08:34.569Z,101637.91
2022-08-05T00:11:23.733Z,101637.13
2022-08-05T00:13:54.908Z,101656.88
2022-08-05T00:16:36.174Z,101660.13
2022-08-05T00:19:08.089Z,101662.50
2022-08-05T00:21:35.710Z,101660.91
2022-08-05T00:24:10.622Z,101661.31
2022-08-05T00:26:38.340Z,101671.72
2022-08-05T00:29:04.830Z,101676.09
2022-08-05T00:31:53.986Z,101674.47
2022-08-05T00:34:54.080Z,101691.53
2022-08-05T00:37:10.602Z,101680.34
2022-08-05T00:39:57.211Z,101692.91
2022-08-05T00:42:32.507Z,101684.72
2022-08-05T00:44:59.760Z,101685.91
2022-08-05T00:47:26.443Z,101696.09
2022-08-05T00:50:12.925Z,101720.16
2022-08-05T00:52:40.093Z,101712.34
2022-08-05T00:55:06.835Z,101713.25
2022-08-05T00:57:55.303Z,101726.56
2022-08-05T01:00:20.016Z,101730.44
2022-08-05T01:02:50.197Z,101730.44
2022-08-05T01:05:16.748Z,101739.00
2022-08-05T01:08:30.351Z,101741.81
2022-08-05T01:10:41.753Z,101763.50
2022-08-05T01:13:58.951Z,101771.66
2022-08-05T01:16:38.348Z,101769.66
2022-08-05T01:19:46.117Z,101775.88
2022-08-05T01:22:27.982Z,101768.44
2022-08-05T01:25:13.723Z,101782.16
2022-08-05T01:28:00.073Z,101773.19
2022-08-05T01:30:33.620Z,101768.66
2022-08-05T01:33:06.145Z,101759.63
2022-08-05T01:35:50.635Z,101755.72
2022-08-05T01:38:27.291Z,101738.50
2022-08-05T01:41:01.802Z,101750.75
2022-08-05T01:43:29.682Z,101744.94
2022-08-05T01:45:57.638Z,101746.59
2022-08-05T01:48:27.069Z,101736.84
2022-08-05T01:50:55.305Z,101706.22
2022-08-05T01:53:54.971Z,101721.25
2022-08-05T01:56:10.597Z,101736.28
2022-08-05T01:58:40.923Z,101733.41
2022-08-05T02:01:14.893Z,101745.53
2022-08-05T02:03:53.058Z,101736.00
2022-08-05T02:06:37.331Z,101739.53
2022-08-05T02:09:05.860Z,101740.28
2022-08-05T02:11:52.636Z,101761.69
2022-08-05T02:14:32.171Z,101754.53
2022-08-05T02:17:06.857Z,101751.53
2022-08-05T02:19:47.070Z,101740.59
2022-08-05T02:22:25.561Z,101735.03
2022-08-05T02:25:02.929Z,101723.69
2022-08-05T02:27:57.957Z,101728.81
2022-08-05T02:30:20.217Z,101721.75
2022-08-05T02:32:51.349Z,101724.97
2022-08-05T02:35:28.321Z,101753.03
2022-08-05T02:38:02.304Z,101763.16
2022-08-05T02:40:31.410Z,101784.03
2022-08-05T02:42:59.705Z,101805.22
2022-08-05T02:45:28.515Z,101798.84
2022-08-05T02:48:14.602Z,101803.75
2022-08-05T02:50:47.120Z,101789.38
2022-08-05T02:53:19.208Z,101779.72
2022-08-05T02:56:00.082Z,101773.88
2022-08-05T02:58:30.244Z,101812.19
2022-08-05T03:01:00.865Z,101818.94
2022-08-05T03:03:33.855Z,101819.13
2022-08-05T03:06:54.060Z,101825.78
2022-08-05T03:08:52.148Z,101820.41
2022-08-05T03:11:56.015Z,101813.53
2022-08-05T03:14:08.291Z,101794.78
2022-08-05T03:16:35.625Z,101823.22
2022-08-05T03:19:17.202Z,101817.88
2022-08-05T03:21:49.974Z,101824.06
2022-08-05T03:24:30.228Z,101822.78
2022-08-05T03:26:59.361Z,101851.84
2022-08-05T03:29:45.165Z,101876.72
2022-08-05T03:32:14.318Z,101905.31
2022-08-05T03:34:41.623Z,101929.44
2022-08-05T03:37:08.372Z,101952.28
2022-08-05T03:39:57.823Z,101982.59
2022-08-05T03:42:23.981Z,101984.88
2022-08-05T03:44:53.696Z,101964.09
2022-08-05T03:47:20.132Z,101958.22
2022-08-05T03:49:51.838Z,101971.28
2022-08-05T03:52:38.609Z,101971.69
2022-08-05T03:56:04.296Z,101989.47
2022-08-05T03:58:08.959Z,101980.06
2022-08-05T04:00:38.477Z,101958.75
2022-08-05T04:03:14.834Z,101928.34
2022-08-05T04:05:54.044Z,101905.41
2022-08-05T04:08:34.905Z,101904.28
2022-08-05T04:11:04.320Z,101897.88
2022-08-05T04:13:50.036Z,101894.88
2022-08-05T04:16:24.250Z,101898.19
2022-08-05T04:18:54.448Z,101893.59
2022-08-05T04:22:10.006Z,101895.56
2022-08-05T04:24:08.940Z,101917.41
2022-08-05T04:26:40.732Z,101927.16
2022-08-05T04:29:07.622Z,101921.13
2022-08-05T04:31:38.812Z,101915.66
2022-08-05T04:34:18.397Z,101900.47
2022-08-05T04:36:52.567Z,101898.28
2022-08-05T04:39:20.397Z,101908.50
2022-08-05T04:41:48.342Z,101907.91
2022-08-05T04:44:21.049Z,101907.19
2022-08-05T04:46:50.827Z,101885.69
2022-08-05T04:49:19.278Z,101875.31
2022-08-05T04:52:05.083Z,101889.81
2022-08-05T04:54:34.444Z,101898.75
2022-08-05T04:57:01.231Z,101902.75
2022-08-05T04:59:38.424Z,101916.38
2022-08-05T05:02:37.225Z,101922.13
2022-08-05T05:04:52.545Z,101923.91
2022-08-05T05:07:29.349Z,101919.50
2022-08-05T05:09:56.050Z,101927.72
2022-08-05T05:12:24.263Z,101919.53
2022-08-05T05:14:54.088Z,101931.94
2022-08-05T05:17:24.187Z,101941.53
2022-08-05T05:19:54.296Z,101951.25
2022-08-05T05:22:22.671Z,101949.25
2022-08-05T05:24:56.973Z,101937.50
2022-08-05T05:27:44.376Z,101925.09
2022-08-05T05:30:28.796Z,101911.97
2022-08-05T05:33:00.255Z,101906.47
2022-08-05T05:35:37.629Z,101913.03
2022-08-05T05:38:08.929Z,101913.34
2022-08-05T05:40:38.545Z,101913.22
2022-08-05T05:43:10.254Z,101912.06
2022-08-05T05:45:36.852Z,101911.63
2022-08-05T05:48:16.082Z,101890.16
2022-08-05T05:50:44.290Z,101884.38
2022-08-05T05:53:21.937Z,101864.03
2022-08-05T05:55:52.125Z,101859.97
2022-08-05T05:58:31.904Z,101867.88
2022-08-05T06:01:12.147Z,101875.81
2022-08-05T06:04:01.138Z,101872.38
2022-08-05T06:06:27.825Z,101869.91
2022-08-05T06:08:57.112Z,101867.88
2022-08-05T06:11:23.592Z,101847.81
2022-08-05T06:13:50.443Z,101859.72
2022-08-05T06:16:29.865Z,101859.97
2022-08-05T06:19:00.771Z,101852.03
2022-08-05T06:21:36.131Z,101857.91
2022-08-05T06:24:06.304Z,101846.88
2022-08-05T06:26:39.344Z,101840.63
2022-08-05T06:29:23.714Z,101837.28
2022-08-05T06:31:52.598Z,101827.22
2022-08-05T06:34:19.887Z,101820.91
2022-08-05T06:36:57.851Z,101837.81
2022-08-05T06:39:27.243Z,101825.56
2022-08-05T06:41:56.340Z,101813.59
2022-08-05T06:44:25.231Z,101813.91
2022-08-05T06:46:52.878Z,101798.44
2022-08-05T06:50:00.453Z,101797.03
2022-08-05T06:52:08.105Z,101803.78
2022-08-05T06:54:54.555Z,101796.38
2022-08-05T06:58:03.889Z,101764.09
2022-08-05T07:00:09.692Z,101759.13
2022-08-05T07:02:43.625Z,101732.25
2022-08-05T07:05:14.118Z,101713.63
2022-08-05T07:07:48.833Z,101690.06
2022-08-05T07:10:16.520Z,101681.88
2022-08-05T07:13:02.831Z,101690.03
2022-08-05T07:16:01.644Z,101683.59
2022-08-05T07:18:31.854Z,101664.78
2022-08-05T07:20:58.606Z,101667.09
2022-08-05T07:23:31.472Z,101659.88
2022-08-05T07:25:57.966Z,101658.63
2022-08-05T07:28:25.204Z,101659.38
2022-08-05T07:30:52.966Z,101649.34
2022-08-05T07:33:36.697Z,101645.00
2022-08-05T07:36:20.900Z,101632.34
2022-08-05T07:38:48.932Z,101601.50
2022-08-05T07:42:08.619Z,101604.47
2022-08-05T07:44:14.046Z,101594.72
2022-08-05T07:46:41.251Z,101602.03
2022-08-05T07:49:14.665Z,101598.38
2022-08-05T07:51:52.913Z,101598.97
2022-08-05T07:54:30.704Z,101597.63
2022-08-05T07:57:22.456Z,101593.84
2022-08-05T07:59:48.946Z,101582.97
2022-08-05T08:02:17.608Z,101575.63
2022-08-05T08:04:49.374Z,101592.94
2022-08-05T08:07:22.478Z,101592.41
2022-08-05T08:09:52.012Z,101591.59
2022-08-05T08:12:35.103Z,101582.97
2022-08-05T08:15:15.767Z,101591.06
2022-08-05T08:17:49.942Z,101587.16
2022-08-05T08:21:01.011Z,101582.25
2022-08-05T08:23:59.934Z,101582.50
2022-08-05T08:25:59.097Z,101574.31
2022-08-05T08:28:36.510Z,101568.34
2022-08-05T08:31:17.445Z,101563.72
2022-08-05T08:33:44.849Z,101547.84
2022-08-05T08:36:38.872Z,101528.47
2022-08-05T08:38:58.289Z,101509.69
2022-08-05T08:41:51.119Z,101505.66
2022-08-05T08:45:19.288Z,101500.28
2022-08-05T08:47:47.048Z,101484.66
2022-08-05T08:50:22.950Z,101490.91
2022-08-05T08:52:51.869Z,101496.69
2022-08-05T08:56:01.964Z,101490.63
2022-08-05T08:58:07.308Z,101494.59
2022-08-05T09:00:36.007Z,101481.91
2022-08-05T09:03:06.482Z,101480.81
2022-08-05T09:05:38.432Z,101462.06
2022-08-05T09:08:19.837Z,101455.56
2022-08-05T09:10:53.280Z,101461.41
2022-08-05T09:13:19.934Z,101461.41
2022-08-05T09:15:50.900Z,101442.72
2022-08-05T09:18:17.571Z,101426.78
2022-08-05T09:20:47.191Z,101423.59
2022-08-05T09:23:19.601Z,101431.75
2022-08-05T09:26:06.202Z,101441.22
2022-08-05T09:28:34.942Z,101441.78
2022-08-05T09:31:23.442Z,101444.28
2022-08-05T09:33:58.494Z,101436.63
2022-08-05T09:36:54.847Z,101428.88
2022-08-05T09:39:24.523Z,101417.22
2022-08-05T09:42:07.803Z,101420.09
2022-08-05T09:44:35.979Z,101418.66
2022-08-05T09:47:12.783Z,101406.16
2022-08-05T09:50:02.043Z,101380.41
2022-08-05T09:52:36.384Z,101379.31
2022-08-05T09:55:56.650Z,101385.31
2022-08-05T09:57:59.977Z,101379.44
2022-08-05T10:00:27.833Z,101392.81
2022-08-05T10:02:58.106Z,101397.69
2022-08-05T10:05:32.780Z,101411.28
2022-08-05T10:08:35.229Z,101402.78
2022-08-05T10:10:50.189Z,101412.53
2022-08-05T10:13:44.028Z,101409.41
2022-08-05T10:16:42.019Z,101414.66
2022-08-05T10:19:23.770Z,101424.84
2022-08-05T10:22:08.996Z,101440.22
2022-08-05T10:24:42.265Z,101442.91
2022-08-05T10:27:14.319Z,101434.91
2022-08-05T10:30:06.300Z,101439.91
2022-08-05T10:32:51.847Z,101443.91
2022-08-05T10:35:17.669Z,101444.03
2022-08-05T10:37:45.274Z,101433.59
2022-08-05T10:40:27.915Z,101437.63
2022-08-05T10:43:01.558Z,101454.50
2022-08-05T10:45:39.695Z,101450.38
2022-08-05T10:48:36.114Z,101450.94
2022-08-05T10:51:22.022Z,101462.53
2022-08-05T10:53:55.134Z,101461.88
2022-08-05T10:56:27.733Z,101454.75
2022-08-05T10:58:55.368Z,101458.41
2022-08-05T11:01:54.513Z,101467.19
2022-08-05T11:04:26.210Z,101470.13
2022-08-05T11:07:04.425Z,101487.13
2022-08-05T11:09:45.331Z,101473.22
2022-08-05T11:12:37.283Z,101488.31
2022-08-05T11:15:20.453Z,101477.13
2022-08-05T11:18:00.279Z,101467.75
2022-08-05T11:20:47.495Z,101457.50
2022-08-05T11:24:05.717Z,101457.88
2022-08-05T11:26:40.444Z,101473.47
2022-08-05T11:29:42.690Z,101476.72
2022-08-05T11:32:41.591Z,101488.88
2022-08-05T11:35:08.137Z,101508.56
2022-08-05T11:38:26.118Z,101519.41
2022-08-05T11:41:00.810Z,101544.31
2022-08-05T11:44:01.070Z,101555.56
2022-08-05T11:46:32.368Z,101573.13
2022-08-05T11:49:01.383Z,101578.84
2022-08-05T11:51:49.031Z,101586.06
2022-08-05T11:54:34.367Z,101599.63
2022-08-05T11:57:07.908Z,101613.16
2022-08-05T11:59:50.065Z,101616.91
2022-08-05T12:02:24.286Z,101600.22
2022-08-05T12:04:59.683Z,101580.72
2022-08-05T12:08:09.100Z,101587.56
2022-08-05T12:10:19.535Z,101580.22
2022-08-05T12:12:58.452Z,101560.31
2022-08-05T12:15:35.743Z,101565.69
2022-08-05T12:18:10.641Z,101566.28
2022-08-05T12:20:38.766Z,101584.13
2022-08-05T12:23:10.702Z,101602.91
2022-08-05T12:25:56.803Z,101615.75
2022-08-05T12:28:39.357Z,101628.66
2022-08-05T12:31:06.313Z,101641.94
2022-08-05T12:33:36.768Z,101639.25
2022-08-05T12:36:08.187Z,101619.69
2022-08-05T12:38:39.766Z,101602.31
2022-08-05T12:41:14.183Z,101579.91
2022-08-05T12:43:51.253Z,101582.28
2022-08-05T12:46:28.773Z,101560.47
2022-08-05T12:49:00.896Z,101544.94
2022-08-05T12:52:13.619Z,101525.94
2022-08-05T12:54:26.492Z,101522.50
2022-08-05T12:57:02.755Z,101520.47
2022-08-05T13:00:08.749Z,101521.06
2022-08-05T13:02:27.471Z,101514.97
2022-08-05T13:04:57.314Z,101505.94
2022-08-05T13:07:57.123Z,101490.91
2022-08-05T13:10:15.112Z,101487.03
2022-08-05T13:12:51.220Z,101483.78
2022-08-05T13:15:41.632Z,101479.47
2022-08-05T13:18:18.802Z,101485.34
2022-08-05T13:20:47.250Z,101490.53
2022-08-05T13:23:16.429Z,101492.16
2022-08-05T13:25:51.831Z,101493.13
2022-08-05T13:28:25.828Z,101499.69
2022-08-05T13:30:53.276Z,101482.09
2022-08-05T13:34:23.605Z,101481.72
2022-08-05T13:36:10.183Z,101598.03
2022-08-05T13:38:38.451Z,101566.94
2022-08-05T13:41:10.861Z,101492.78
2022-08-05T13:43:45.098Z,101569.63
2022-08-05T13:46:38.033Z,101609.03
2022-08-05T13:49:10.486Z,101543.72
2022-08-05T13:51:41.669Z,101447.97
2022-08-05T13:54:37.827Z,101428.56
2022-08-05T13:57:04.614Z,101482.09
2022-08-05T13:59:32.855Z,101535.06
2022-08-05T14:02:00.973Z,101573.91
2022-08-05T14:04:52.312Z,101660.09
2022-08-05T14:07:56.255Z,101670.81
2022-08-05T14:10:12.548Z,101566.88
2022-08-05T14:12:42.823Z,101552.97
2022-08-05T14:16:05.605Z,101491.22
2022-08-05T14:17:59.713Z,101373.25
2022-08-05T14:20:29.380Z,101237.16
2022-08-05T14:22:56.136Z,101411.75
2022-08-05T14:25:22.763Z,101478.31
2022-08-05T14:27:55.365Z,101532.13
2022-08-05T14:30:22.022Z,101625.56
2022-08-05T14:32:49.014Z,101657.53
2022-08-05T14:35:16.267Z,101653.84
2022-08-05T14:37:52.112Z,101676.88
2022-08-05T14:40:21.708Z,101694.06
2022-08-05T14:42:51.229Z,101714.06
2022-08-05T14:45:18.312Z,101717.47
2022-08-05T14:48:04.007Z,101701.28
2022-08-05T14:50:31.739Z,101716.06
2022-08-05T14:52:59.565Z,101721.53
2022-08-05T14:55:38.630Z,101715.84
2022-08-05T14:58:11.847Z,101713.50
2022-08-05T15:00:58.577Z,101721.88
2022-08-05T15:03:33.887Z,101738.44
2022-08-05T15:06:07.453Z,101730.41
2022-08-05T15:09:01.073Z,101744.69
2022-08-05T15:11:50.978Z,101737.31
2022-08-05T15:14:33.217Z,101743.84
2022-08-05T15:16:59.927Z,101751.38
2022-08-05T15:19:26.469Z,101747.03
2022-08-05T15:21:53.286Z,101732.22
2022-08-05T15:24:24.507Z,101699.34
2022-08-05T15:26:51.227Z,101666.25
2022-08-05T15:29:17.784Z,101657.00
2022-08-05T15:31:49.743Z,101655.56
2022-08-05T15:34:32.172Z,101634.84
2022-08-05T15:37:03.495Z,101582.84
2022-08-05T15:41:01.898Z,101511.03
2022-08-05T15:42:50.340Z,101491.19
2022-08-05T15:45:06.288Z,101484.91
2022-08-05T15:47:32.948Z,101506.88
2022-08-05T15:50:02.763Z,101502.34
2022-08-05T15:52:52.816Z,101493.88
2022-08-05T15:55:20.128Z,101495.06
2022-08-05T15:57:52.095Z,101511.28
2022-08-05T16:00:30.503Z,101529.03
2022-08-05T16:03:06.636Z,101543.56
2022-08-05T16:05:33.681Z,101574.13
2022-08-05T16:08:00.833Z,101593.75
2022-08-05T16:10:27.953Z,101601.53
2022-08-05T16:12:56.273Z,101610.47
2022-08-05T16:15:23.897Z,101615.47
2022-08-05T16:17:57.482Z,101633.09
2022-08-05T16:20:25.599Z,101632.06
2022-08-05T16:22:54.508Z,101641.41
2022-08-05T16:25:21.023Z,101637.81
2022-08-05T16:28:02.250Z,101575.16
2022-08-05T16:30:33.447Z,101548.78
2022-08-05T16:33:00.972Z,101554.75
2022-08-05T16:35:32.560Z,101572.25
2022-08-05T16:38:03.627Z,101568.19
2022-08-05T16:40:52.024Z,101580.00
2022-08-05T16:43:23.717Z,101575.34
2022-08-05T16:46:06.703Z,101583.22
2022-08-05T16:48:36.060Z,101587.13
2022-08-05T16:51:03.791Z,101604.00
2022-08-05T16:54:04.148Z,101598.94
2022-08-05T16:56:22.705Z,101612.47
2022-08-05T16:58:49.970Z,101611.41
2022-08-05T17:01:16.806Z,101617.81
2022-08-05T17:03:45.662Z,101615.63
2022-08-05T17:06:12.144Z,101605.00
2022-08-05T17:08:52.988Z,101599.50
2022-08-05T17:11:25.389Z,101598.88
2022-08-05T17:14:05.658Z,101588.19
2022-08-05T17:16:38.050Z,101584.41
2022-08-05T17:19:09.679Z,101604.63
2022-08-05T17:21:39.734Z,101613.38
2022-08-05T17:24:14.328Z,101640.00
2022-08-05T17:26:56.247Z,101683.22
2022-08-05T17:29:34.086Z,101698.88
2022-08-05T17:32:17.142Z,101690.69
2022-08-05T17:34:46.186Z,101706.44
2022-08-05T17:37:39.681Z,101719.53
2022-08-05T17:40:01.218Z,101731.84
2022-08-05T17:42:31.907Z,101732.91
2022-08-05T17:44:59.289Z,101732.06
2022-08-05T17:47:27.164Z,101738.59
2022-08-05T17:50:03.882Z,101739.09
2022-08-05T17:52:35.098Z,101741.00
2022-08-05T17:55:20.770Z,101734.84
2022-08-05T17:57:50.030Z,101731.59
2022-08-05T18:00:16.924Z,101745.31
2022-08-05T18:02:43.509Z,101737.59
2022-08-05T18:05:10.263Z,101747.34
2022-08-05T18:07:44.006Z,101738.97
2022-08-05T18:10:20.356Z,101736.31
2022-08-05T18:12:47.560Z,101743.22
2022-08-05T18:15:14.215Z,101751.47
2022-08-05T18:18:01.035Z,101765.25
2022-08-05T18:20:29.316Z,101752.66
2022-08-05T18:22:59.261Z,101756.91
2022-08-05T18:25:35.313Z,101763.78
2022-08-05T18:28:05.076Z,101764.63
2022-08-05T18:30:33.039Z,101766.59
2022-08-05T18:33:00.279Z,101760.41
2022-08-05T18:36:00.067Z,101753.06
2022-08-05T18:38:16.537Z,101758.53
2022-08-05T18:41:57.574Z,101774.66
2022-08-05T18:43:38.108Z,101794.88
2022-08-05T18:46:09.528Z,101790.94
2022-08-05T18:48:41.425Z,101795.41
2022-08-05T18:52:05.983Z,101806.63
2022-08-05T18:54:13.436Z,101809.53
2022-08-05T18:56:40.454Z,101819.78
2022-08-05T18:59:43.839Z,101820.56
2022-08-05T19:01:57.094Z,101837.38
2022-08-05T19:04:25.183Z,101823.25
2022-08-05T19:06:51.861Z,101826.44
2022-08-05T19:09:20.593Z,101825.34
2022-08-05T19:11:59.155Z,101830.38
2022-08-05T19:14:44.932Z,101837.81
2022-08-05T19:17:13.859Z,101835.09
2022-08-05T19:19:46.362Z,101847.00
2022-08-05T19:22:17.340Z,101854.59
2022-08-05T19:24:54.577Z,101858.88
2022-08-05T19:27:23.943Z,101865.72
2022-08-05T19:29:51.824Z,101871.41
2022-08-05T19:32:18.423Z,101883.19
2022-08-05T19:34:54.555Z,101884.53
2022-08-05T19:37:34.946Z,101895.09
2022-08-05T19:40:10.761Z,101901.22
2022-08-05T19:42:38.850Z,101901.75
2022-08-05T19:45:07.019Z,101907.34
2022-08-05T19:47:37.918Z,101915.44
2022-08-05T19:50:07.593Z,101917.63
2022-08-05T19:52:37.165Z,101925.88
2022-08-05T19:55:07.114Z,101922.09
2022-08-05T19:58:06.689Z,101931.13
2022-08-05T20:00:38.251Z,101942.03
2022-08-05T20:03:08.433Z,101941.38
2022-08-05T20:05:43.086Z,101939.59
2022-08-05T20:08:17.034Z,101945.75
2022-08-05T20:10:43.497Z,101957.81
2022-08-05T20:13:10.870Z,101958.25
2022-08-05T20:15:52.850Z,101965.50
2022-08-05T20:18:33.390Z,101969.88
2022-08-05T20:21:04.539Z,101986.06
2022-08-05T20:23:39.749Z,101987.53
2022-08-05T20:26:21.054Z,101991.69
2022-08-05T20:28:50.235Z,102005.97
2022-08-05T20:31:17.609Z,102010.06
2022-08-05T20:33:48.733Z,102017.34
2022-08-05T20:36:16.172Z,102032.50
2022-08-05T20:38:54.315Z,102036.09
2022-08-05T20:41:27.104Z,102044.78
2022-08-05T20:43:58.989Z,102062.56
2022-08-05T20:46:28.137Z,102077.13
2022-08-05T20:48:54.735Z,102087.47
2022-08-05T20:51:21.525Z,102100.13
2022-08-05T20:53:56.667Z,102119.28
2022-08-05T20:56:28.782Z,102133.78
2022-08-05T20:59:00.079Z,102149.09
2022-08-05T21:01:39.057Z,102163.25
2022-08-05T21:04:10.361Z,102168.06
2022-08-05T21:06:45.676Z,102183.22
2022-08-05T21:09:14.288Z,102193.97
2022-08-05T21:12:07.759Z,102194.69
2022-08-05T21:14:29.131Z,102210.53
2022-08-05T21:17:01.684Z,102225.47
2022-08-05T21:19:29.688Z,102234.47
2022-08-05T21:22:14.466Z,102249.81
2022-08-05T21:24:40.980Z,102254.25
2022-08-05T21:27:09.095Z,102272.66
2022-08-05T21:29:40.663Z,102275.19
2022-08-05T21:32:07.604Z,102285.25
2022-08-05T21:34:35.494Z,102277.41
2022-08-05T21:37:02.328Z,102296.59
2022-08-05T21:39:29.259Z,102297.81
2022-08-05T21:42:01.691Z,102300.31
2022-08-05T21:44:29.897Z,102307.75
2022-08-05T21:46:58.117Z,102325.00
2022-08-05T21:49:58.721Z,102329.94
2022-08-05T21:52:22.553Z,102336.06
2022-08-05T21:54:55.393Z,102341.91
2022-08-05T21:57:37.655Z,102344.56
2022-08-05T22:00:11.522Z,102346.97
2022-08-05T22:02:38.572Z,102355.16
2022-08-05T22:05:06.005Z,102350.22
2022-08-05T22:07:54.282Z,102350.88
2022-08-05T22:10:25.494Z,102358.56
2022-08-05T22:12:54.449Z,102365.72
2022-08-05T22:16:01.845Z,102362.41
2022-08-05T22:18:11.139Z,102364.59
2022-08-05T22:20:38.937Z,102358.28
2022-08-05T22:24:02.815Z,102360.56
2022-08-05T22:26:41.013Z,102350.84
2022-08-05T22:29:07.603Z,102360.09
2022-08-05T22:31:45.003Z,102362.75
2022-08-05T22:34:12.853Z,102359.41
2022-08-05T22:36:52.336Z,102369.03
2022-08-05T22:39:21.451Z,102370.50
2022-08-05T22:42:09.626Z,102376.06
2022-08-05T22:44:34.849Z,102381.81
2022-08-05T22:47:04.937Z,102389.38
2022-08-05T22:50:18.001Z,102392.28
2022-08-05T22:52:30.683Z,102399.72
2022-08-05T22:55:00.808Z,102404.28
2022-08-05T22:57:27.343Z,102412.34
2022-08-05T23:00:04.279Z,102417.16
2022-08-05T23:02:30.911Z,102426.22
2022-08-05T23:05:01.940Z,102426.91
2022-08-05T23:07:32.299Z,102429.38
2022-08-05T23:10:01.696Z,102434.53
2022-08-05T23:12:32.974Z,102436.78
2022-08-05T23:15:08.883Z,102442.25
2022-08-05T23:17:37.882Z,102442.25
2022-08-05T23:20:23.545Z,102435.00
2022-08-05T23:22:55.636Z,102438.81
2022-08-05T23:25:52.763Z,102446.63
2022-08-05T23:28:09.858Z,102459.03
2022-08-05T23:30:39.559Z,102460.84
2022-08-05T23:33:07.261Z,102463.13
2022-08-05T23:35:45.367Z,102473.75
2022-08-05T23:38:12.167Z,102482.75
2022-08-05T23:40:40.728Z,102489.34
2022-08-05T23:43:24.394Z,102498.41
2022-08-05T23:45:55.362Z,102507.72
2022-08-05T23:48:22.154Z,102519.91
2022-08-05T23:50:51.786Z,102526.06
2022-08-05T23:53:22.233Z,102535.13
2022-08-05T23:55:49.732Z,102539.97
2022-08-05T23:58:31.621Z,102551.69
